ENNM/OSY METAR and TAF weather

Enter ICAO airport designator
Station Type Date Time Source
ENNM METAR 2021/01/17 19:20 UTC NOAA

ENNM 171920Z 05020KT CAVOK M12/M14 Q1010


Station Type Date Time Source
ENNM Decoded METAR 2021/01/17 19:20 UTC NOAA

Namsos Lufthavn, Norway (ENNM) 64-28N 011-35E 2M
Jan 17, 2021 - 02:20 PM EST / 2021.01.17 1920 UTC
Wind: from the NE (050 degrees) at 23 MPH (20 KT):0
Visibility: greater than 7 mile(s):0
Temperature: 10 F (-12 C)
Windchill: -9 F (-23 C):2
Dew Point: 6 F (-14 C)
Relative Humidity: 85%
Pressure (altimeter): 29.83 in. Hg (1010 hPa)
ob: ENNM 171920Z 05020KT CAVOK M12/M14 Q1010
cycle: 19

Station Type Date Time Source
ENNM TAF UTC NOAA

Error!

Example: see airport list